createdAt,value
2023-02-18T00:01:30.474Z,95376.34
2023-02-18T00:03:32.101Z,95370.16
2023-02-18T00:05:33.784Z,95360.25
2023-02-18T00:07:36.779Z,95352.91
2023-02-18T00:09:39.169Z,95353.84
2023-02-18T00:11:40.853Z,95358.94
2023-02-18T00:13:42.506Z,95365.56
2023-02-18T00:15:44.125Z,95353.19
2023-02-18T00:17:45.746Z,95344.28
2023-02-18T00:19:47.396Z,95348.88
2023-02-18T00:21:49.100Z,95351.13
2023-02-18T00:23:51.339Z,95341.34
2023-02-18T00:26:01.077Z,95330.31
2023-02-18T00:28:02.652Z,95330.44
2023-02-18T00:30:05.924Z,95334.47
2023-02-18T00:32:07.957Z,95324.59
2023-02-18T00:34:11.545Z,95318.81
2023-02-18T00:36:17.239Z,95322.84
2023-02-18T00:38:18.818Z,95320.75
2023-02-18T00:40:21.064Z,95313.88
2023-02-18T00:42:22.675Z,95306.78
2023-02-18T00:44:24.317Z,95315.41
2023-02-18T00:46:26.621Z,95324.53
2023-02-18T00:48:28.378Z,95323.09
2023-02-18T00:50:29.936Z,95321.09
2023-02-18T00:52:31.539Z,95310.94
2023-02-18T00:54:33.110Z,95303.94
2023-02-18T00:56:35.131Z,95317.75
2023-02-18T00:58:37.263Z,95324.28
2023-02-18T01:00:38.877Z,95313.00
2023-02-18T01:02:40.490Z,95306.19
2023-02-18T01:04:42.093Z,95310.66
2023-02-18T01:06:47.872Z,95324.03
2023-02-18T01:08:49.977Z,95315.75
2023-02-18T01:10:54.879Z,95301.00
2023-02-18T01:12:56.482Z,95309.03
2023-02-18T01:14:58.101Z,95313.66
2023-02-18T01:16:59.690Z,95313.41
2023-02-18T01:19:01.381Z,95307.25
2023-02-18T01:21:03.200Z,95302.16
2023-02-18T01:23:05.019Z,95313.41
2023-02-18T01:25:07.205Z,95296.00
2023-02-18T01:27:08.766Z,95314.59
2023-02-18T01:29:10.343Z,95304.06
2023-02-18T01:31:13.401Z,95304.78
2023-02-18T01:33:15.082Z,95307.50
2023-02-18T01:35:18.730Z,95301.94
2023-02-18T01:37:20.314Z,95299.78
2023-02-18T01:39:21.940Z,95299.47
2023-02-18T01:41:23.921Z,95302.63
2023-02-18T01:43:25.609Z,95290.69
2023-02-18T01:45:38.968Z,95306.78
2023-02-18T01:47:40.667Z,95315.25
2023-02-18T01:49:44.877Z,95320.47
2023-02-18T01:52:14.777Z,95309.69
2023-02-18T01:54:22.002Z,95323.56
2023-02-18T01:56:31.231Z,95322.63
2023-02-18T01:58:33.193Z,95326.50
2023-02-18T02:00:37.073Z,95316.72
2023-02-18T02:02:39.664Z,95318.63
2023-02-18T02:04:41.841Z,95319.84
2023-02-18T02:06:43.455Z,95322.91
2023-02-18T02:08:46.012Z,95317.19
2023-02-18T02:11:03.299Z,95324.28
2023-02-18T02:13:55.724Z,95309.25
2023-02-18T02:16:11.353Z,95316.72
2023-02-18T02:18:25.280Z,95307.84
2023-02-18T02:20:51.272Z,95302.50
2023-02-18T02:23:08.248Z,95318.97
2023-02-18T02:25:15.594Z,95308.88
2023-02-18T02:27:22.895Z,95305.91
2023-02-18T02:29:33.344Z,95309.66
2023-02-18T02:31:53.634Z,95308.31
2023-02-18T02:34:02.759Z,95314.00
2023-02-18T02:36:39.030Z,95304.16
2023-02-18T02:38:56.883Z,95290.19
2023-02-18T02:41:17.528Z,95294.81
2023-02-18T02:43:24.536Z,95289.63
2023-02-18T02:45:47.162Z,95282.56
2023-02-18T02:47:57.079Z,95279.63
2023-02-18T02:50:16.903Z,95281.66
2023-02-18T02:52:18.474Z,95290.16
2023-02-18T02:54:24.411Z,95282.66
2023-02-18T02:56:26.117Z,95287.59
2023-02-18T02:58:27.764Z,95294.25
2023-02-18T03:00:44.374Z,95298.00
2023-02-18T03:02:55.308Z,95300.22
2023-02-18T03:05:12.167Z,95309.75
2023-02-18T03:07:19.927Z,95312.22
2023-02-18T03:09:48.982Z,95303.09
2023-02-18T03:12:17.582Z,95314.53
2023-02-18T03:14:33.612Z,95313.75
2023-02-18T03:16:48.726Z,95307.84
2023-02-18T03:19:01.392Z,95301.22
2023-02-18T03:21:07.487Z,95298.28
2023-02-18T03:23:12.529Z,95302.09
2023-02-18T03:25:15.097Z,95316.28
2023-02-18T03:27:21.887Z,95315.56
2023-02-18T03:29:23.637Z,95334.09
2023-02-18T03:31:27.816Z,95334.78
2023-02-18T03:33:35.048Z,95343.97
2023-02-18T03:35:37.626Z,95329.88
2023-02-18T03:37:43.245Z,95338.16
2023-02-18T03:39:48.584Z,95346.28
2023-02-18T03:41:50.277Z,95338.88
2023-02-18T03:44:00.594Z,95352.53
2023-02-18T03:46:03.578Z,95345.47
2023-02-18T03:48:05.612Z,95347.28
2023-02-18T03:50:08.082Z,95367.84
2023-02-18T03:52:09.821Z,95350.66
2023-02-18T03:54:11.654Z,95359.56
2023-02-18T03:56:13.431Z,95358.78
2023-02-18T03:58:15.217Z,95358.22
2023-02-18T04:00:17.163Z,95360.94
2023-02-18T04:02:19.004Z,95346.78
2023-02-18T04:04:20.698Z,95353.63
2023-02-18T04:06:23.487Z,95346.34
2023-02-18T04:08:25.466Z,95344.34
2023-02-18T04:10:27.109Z,95342.25
2023-02-18T04:12:28.820Z,95332.06
2023-02-18T04:14:30.431Z,95335.03
2023-02-18T04:16:32.238Z,95330.06
2023-02-18T04:18:33.913Z,95330.78
2023-02-18T04:20:35.587Z,95324.97
2023-02-18T04:22:37.226Z,95321.75
2023-02-18T04:24:38.912Z,95318.94
2023-02-18T04:26:40.540Z,95318.00
2023-02-18T04:28:42.167Z,95315.16
2023-02-18T04:30:44.621Z,95319.63
2023-02-18T04:32:46.418Z,95313.00
2023-02-18T04:34:48.027Z,95310.75
2023-02-18T04:36:49.650Z,95310.41
2023-02-18T04:38:51.298Z,95303.91
2023-02-18T04:40:53.043Z,95313.94
2023-02-18T04:42:54.670Z,95314.81
2023-02-18T04:45:04.203Z,95310.25
2023-02-18T04:47:06.804Z,95308.72
2023-02-18T04:49:08.504Z,95320.66
2023-02-18T04:51:10.316Z,95320.97
2023-02-18T04:53:11.909Z,95326.28
2023-02-18T04:55:13.672Z,95324.38
2023-02-18T04:57:15.318Z,95332.53
2023-02-18T04:59:17.073Z,95333.97
2023-02-18T05:01:18.688Z,95325.94
2023-02-18T05:03:20.432Z,95325.28
2023-02-18T05:05:22.318Z,95346.03
2023-02-18T05:07:23.920Z,95361.53
2023-02-18T05:09:25.691Z,95356.69
2023-02-18T05:11:27.320Z,95361.97
2023-02-18T05:13:28.925Z,95351.97
2023-02-18T05:15:30.714Z,95346.41
2023-02-18T05:17:32.543Z,95337.66
2023-02-18T05:19:34.160Z,95343.25
2023-02-18T05:21:35.757Z,95339.69
2023-02-18T05:23:37.308Z,95341.97
2023-02-18T05:25:38.895Z,95336.00
2023-02-18T05:27:40.537Z,95333.19
2023-02-18T05:29:42.167Z,95322.03
2023-02-18T05:31:43.885Z,95327.97
2023-02-18T05:33:45.532Z,95326.72
2023-02-18T05:35:47.172Z,95318.81
2023-02-18T05:37:48.785Z,95310.03
2023-02-18T05:39:50.394Z,95317.75
2023-02-18T05:41:52.191Z,95324.06
2023-02-18T05:44:12.030Z,95324.84
2023-02-18T05:46:13.634Z,95316.38
2023-02-18T05:48:15.289Z,95316.63
2023-02-18T05:50:17.232Z,95323.06
2023-02-18T05:52:18.894Z,95328.34
2023-02-18T05:54:20.612Z,95343.22
2023-02-18T05:56:22.286Z,95350.31
2023-02-18T05:58:23.897Z,95347.22
2023-02-18T06:00:25.646Z,95352.53
2023-02-18T06:02:27.188Z,95354.75
2023-02-18T06:04:28.789Z,95352.03
2023-02-18T06:06:30.445Z,95356.56
2023-02-18T06:08:31.996Z,95356.38
2023-02-18T06:10:33.566Z,95346.88
2023-02-18T06:12:35.180Z,95346.81
2023-02-18T06:14:36.809Z,95351.72
2023-02-18T06:16:38.516Z,95348.19
2023-02-18T06:18:40.198Z,95347.44
2023-02-18T06:20:41.839Z,95346.00
2023-02-18T06:22:43.472Z,95336.56
2023-02-18T06:24:45.064Z,95334.22
2023-02-18T06:26:46.670Z,95345.34
2023-02-18T06:28:48.271Z,95347.22
2023-02-18T06:30:50.417Z,95346.28
2023-02-18T06:32:51.998Z,95331.84
2023-02-18T06:34:53.686Z,95337.19
2023-02-18T06:36:55.273Z,95336.47
2023-02-18T06:38:57.633Z,95326.53
2023-02-18T06:40:59.274Z,95328.88
2023-02-18T06:43:00.836Z,95335.28
2023-02-18T06:45:06.802Z,95343.22
2023-02-18T06:47:08.417Z,95341.44
2023-02-18T06:49:13.145Z,95334.59
2023-02-18T06:51:16.247Z,95334.47
2023-02-18T06:53:18.155Z,95328.69
2023-02-18T06:55:19.822Z,95330.56
2023-02-18T06:57:21.413Z,95328.53
2023-02-18T06:59:23.202Z,95328.06
2023-02-18T07:01:24.807Z,95324.03
2023-02-18T07:03:26.524Z,95336.81
2023-02-18T07:05:28.503Z,95332.09
2023-02-18T07:07:30.182Z,95334.19
2023-02-18T07:09:31.892Z,95332.16
2023-02-18T07:11:33.675Z,95326.94
2023-02-18T07:13:35.361Z,95327.03
2023-02-18T07:15:37.008Z,95321.22
2023-02-18T07:17:39.208Z,95316.88
2023-02-18T07:19:40.925Z,95319.25
2023-02-18T07:21:43.088Z,95317.97
2023-02-18T07:23:44.662Z,95315.41
2023-02-18T07:25:46.206Z,95325.69
2023-02-18T07:27:47.806Z,95318.72
2023-02-18T07:29:49.640Z,95313.25
2023-02-18T07:31:51.546Z,95315.94
2023-02-18T07:33:53.235Z,95317.19
2023-02-18T07:35:57.008Z,95321.81
2023-02-18T07:37:58.682Z,95327.97
2023-02-18T07:40:00.330Z,95334.91
2023-02-18T07:42:05.031Z,95333.66
2023-02-18T07:44:06.628Z,95332.31
2023-02-18T07:46:08.694Z,95338.78
2023-02-18T07:48:10.680Z,95351.53
2023-02-18T07:50:12.331Z,95344.25
2023-02-18T07:52:15.060Z,95348.78
2023-02-18T07:54:18.326Z,95347.88
2023-02-18T07:56:19.987Z,95349.97
2023-02-18T07:58:27.800Z,95350.19
2023-02-18T08:00:29.424Z,95346.81
2023-02-18T08:02:31.070Z,95344.13
2023-02-18T08:04:32.878Z,95334.81
2023-02-18T08:06:54.125Z,95338.41
2023-02-18T08:08:55.719Z,95341.56
2023-02-18T08:11:02.727Z,95339.94
2023-02-18T08:13:08.935Z,95330.94
2023-02-18T08:15:10.476Z,95327.94
2023-02-18T08:17:12.091Z,95330.25
2023-02-18T08:19:14.045Z,95325.66
2023-02-18T08:21:16.926Z,95326.75
2023-02-18T08:23:22.779Z,95322.66
2023-02-18T08:25:29.759Z,95317.88
2023-02-18T08:27:31.835Z,95315.94
2023-02-18T08:29:33.418Z,95311.25
2023-02-18T08:31:35.153Z,95311.13
2023-02-18T08:33:36.844Z,95308.38
2023-02-18T08:35:38.509Z,95315.25
2023-02-18T08:37:53.021Z,95314.72
2023-02-18T08:39:55.954Z,95305.91
2023-02-18T08:41:57.549Z,95288.16
2023-02-18T08:43:59.188Z,95296.69
2023-02-18T08:46:00.969Z,95292.28
2023-02-18T08:48:18.286Z,95297.63
2023-02-18T08:50:26.121Z,95301.38
2023-02-18T08:52:28.044Z,95305.91
2023-02-18T08:54:29.734Z,95314.28
2023-02-18T08:56:32.616Z,95309.75
2023-02-18T08:58:37.271Z,95308.78
2023-02-18T09:00:40.163Z,95314.53
2023-02-18T09:02:41.803Z,95313.41
2023-02-18T09:04:43.769Z,95323.59
2023-02-18T09:06:46.863Z,95314.34
2023-02-18T09:08:48.539Z,95316.03
2023-02-18T09:10:50.144Z,95326.91
2023-02-18T09:12:51.856Z,95327.59
2023-02-18T09:14:53.491Z,95325.91
2023-02-18T09:16:57.771Z,95316.81
2023-02-18T09:18:59.525Z,95315.16
2023-02-18T09:21:01.159Z,95319.81
2023-02-18T09:23:03.774Z,95317.75
2023-02-18T09:25:05.655Z,95318.91
2023-02-18T09:27:08.764Z,95315.78
2023-02-18T09:29:12.145Z,95301.91
2023-02-18T09:31:16.458Z,95291.00
2023-02-18T09:33:18.692Z,95288.91
2023-02-18T09:35:20.568Z,95283.34
2023-02-18T09:37:22.246Z,95283.06
2023-02-18T09:39:23.942Z,95282.16
2023-02-18T09:41:41.792Z,95282.31
2023-02-18T09:43:46.525Z,95284.09
2023-02-18T09:45:48.412Z,95277.44
2023-02-18T09:47:50.946Z,95275.75
2023-02-18T09:49:55.344Z,95276.66
2023-02-18T09:51:58.070Z,95277.09
2023-02-18T09:53:59.872Z,95278.78
2023-02-18T09:56:01.902Z,95280.13
2023-02-18T09:58:11.422Z,95273.16
2023-02-18T10:00:17.237Z,95269.81
2023-02-18T10:02:20.588Z,95269.41
2023-02-18T10:04:32.187Z,95262.75
2023-02-18T10:06:34.944Z,95260.66
2023-02-18T10:08:51.120Z,95254.88
2023-02-18T10:10:52.804Z,95257.56
2023-02-18T10:12:55.800Z,95250.88
2023-02-18T10:15:00.109Z,95249.91
2023-02-18T10:17:02.152Z,95248.75
2023-02-18T10:19:19.188Z,95252.81
2023-02-18T10:21:30.597Z,95250.13
2023-02-18T10:23:35.279Z,95256.22
2023-02-18T10:25:39.669Z,95246.78
2023-02-18T10:27:41.293Z,95242.16
2023-02-18T10:29:42.908Z,95247.53
2023-02-18T10:31:50.363Z,95239.91
2023-02-18T10:34:15.389Z,95241.31
2023-02-18T10:36:23.006Z,95231.91
2023-02-18T10:39:02.229Z,95239.13
2023-02-18T10:41:07.257Z,95221.72
2023-02-18T10:43:52.856Z,95219.53
2023-02-18T10:46:06.441Z,95223.06
2023-02-18T10:48:33.648Z,95221.66
2023-02-18T10:50:45.530Z,95210.78
2023-02-18T10:52:49.604Z,95211.63
2023-02-18T10:55:26.784Z,95200.47
2023-02-18T10:57:28.506Z,95199.47
2023-02-18T10:59:33.578Z,95194.88
2023-02-18T11:01:35.382Z,95197.72
2023-02-18T11:03:46.406Z,95194.50
2023-02-18T11:05:51.095Z,95181.38
2023-02-18T11:07:56.861Z,95181.41
2023-02-18T11:10:19.962Z,95175.97
2023-02-18T11:12:43.488Z,95165.81
2023-02-18T11:14:51.481Z,95173.72
2023-02-18T11:16:56.501Z,95165.09
2023-02-18T11:19:00.316Z,95172.41
2023-02-18T11:21:03.773Z,95167.56
2023-02-18T11:23:08.450Z,95162.06
2023-02-18T11:25:24.321Z,95157.97
2023-02-18T11:27:36.244Z,95152.38
2023-02-18T11:29:38.864Z,95139.44
2023-02-18T11:31:43.632Z,95139.84
2023-02-18T11:33:52.176Z,95131.44
2023-02-18T11:35:58.297Z,95123.13
2023-02-18T11:38:03.329Z,95123.59
2023-02-18T11:40:05.671Z,95113.44
2023-02-18T11:42:07.478Z,95104.09
2023-02-18T11:44:23.580Z,95105.56
2023-02-18T11:46:27.720Z,95112.13
2023-02-18T11:48:29.508Z,95102.97
2023-02-18T11:50:33.404Z,95109.34
2023-02-18T11:52:47.015Z,95097.88
2023-02-18T11:55:01.143Z,95108.19
2023-02-18T11:57:06.537Z,95118.72
2023-02-18T11:59:10.583Z,95089.97
2023-02-18T12:01:24.924Z,95102.00
2023-02-18T12:03:42.544Z,95081.41
2023-02-18T12:05:45.699Z,95090.16
2023-02-18T12:08:09.836Z,95083.44
2023-02-18T12:10:31.154Z,95067.94
2023-02-18T12:12:41.098Z,95073.81
2023-02-18T12:14:43.928Z,95077.59
2023-02-18T12:16:51.439Z,95077.50
2023-02-18T12:19:11.081Z,95070.97
2023-02-18T12:21:42.245Z,95084.31
2023-02-18T12:23:53.078Z,95080.59
2023-02-18T12:25:57.046Z,95072.16
2023-02-18T12:28:13.879Z,95072.72
2023-02-18T12:30:39.931Z,95068.97
2023-02-18T12:32:55.620Z,95062.78
2023-02-18T12:35:28.101Z,95060.03
2023-02-18T12:37:54.202Z,95050.56
2023-02-18T12:40:01.494Z,95044.75
2023-02-18T12:42:18.203Z,95044.63
2023-02-18T12:44:28.502Z,95043.81
2023-02-18T12:46:40.031Z,95045.34
2023-02-18T12:49:07.949Z,95037.97
2023-02-18T12:51:30.457Z,95028.53
2023-02-18T12:53:38.333Z,95040.91
2023-02-18T12:55:49.048Z,95031.63
2023-02-18T12:57:56.537Z,95035.66
2023-02-18T13:00:19.627Z,95036.84
2023-02-18T13:02:54.714Z,95035.34
2023-02-18T13:05:32.417Z,95025.97
2023-02-18T13:07:44.260Z,95030.63
2023-02-18T13:09:45.830Z,95031.78
2023-02-18T13:12:41.508Z,95036.44
2023-02-18T13:14:47.562Z,95039.56
2023-02-18T13:16:52.207Z,95036.97
2023-02-18T13:18:53.838Z,95043.25
2023-02-18T13:21:01.737Z,95037.16
2023-02-18T13:23:04.331Z,95042.69
2023-02-18T13:25:07.183Z,95039.81
2023-02-18T13:27:33.800Z,95049.13
2023-02-18T13:29:46.829Z,95039.47
2023-02-18T13:32:16.953Z,95036.13
2023-02-18T13:34:29.877Z,95030.72
2023-02-18T13:36:37.274Z,95039.19
2023-02-18T13:38:58.445Z,95036.22
2023-02-18T13:41:00.417Z,95037.91
2023-02-18T13:43:32.285Z,95050.00
2023-02-18T13:45:34.331Z,95044.16
2023-02-18T13:47:42.672Z,95047.03
2023-02-18T13:49:44.292Z,95038.31
2023-02-18T13:51:48.780Z,95030.50
2023-02-18T13:53:52.753Z,95028.84
2023-02-18T13:56:28.414Z,95025.47
2023-02-18T13:58:43.433Z,95036.91
2023-02-18T14:01:05.570Z,95028.84
2023-02-18T14:03:45.073Z,95039.63
2023-02-18T14:05:46.753Z,95032.34
2023-02-18T14:08:17.726Z,95030.94
2023-02-18T14:10:19.356Z,95027.13
2023-02-18T14:12:42.252Z,95035.94
2023-02-18T14:14:44.104Z,95035.47
2023-02-18T14:17:19.859Z,95036.84
2023-02-18T14:19:29.007Z,95043.97
2023-02-18T14:21:41.191Z,95039.72
2023-02-18T14:23:51.790Z,95036.25
2023-02-18T14:26:14.957Z,95039.44
2023-02-18T14:28:38.010Z,95057.19
2023-02-18T14:30:42.348Z,95051.94
2023-02-18T14:32:45.455Z,95046.81
2023-02-18T14:35:03.519Z,95041.13
2023-02-18T14:37:30.517Z,95045.88
2023-02-18T14:39:54.081Z,95042.56
2023-02-18T14:42:04.769Z,95049.16
2023-02-18T14:44:09.477Z,95043.63
2023-02-18T14:46:24.660Z,95044.28
2023-02-18T14:48:37.962Z,95056.63
2023-02-18T14:50:43.054Z,95032.09
2023-02-18T14:52:48.854Z,95031.94
2023-02-18T14:54:50.879Z,95025.81
2023-02-18T14:57:04.416Z,95027.09
2023-02-18T14:59:06.657Z,95028.44
2023-02-18T15:01:19.664Z,95022.00
2023-02-18T15:03:22.486Z,95033.06
2023-02-18T15:05:26.694Z,95019.69
2023-02-18T15:07:28.362Z,95025.63
2023-02-18T15:09:30.417Z,95017.72
2023-02-18T15:11:39.193Z,95027.47
2023-02-18T15:13:45.769Z,95044.13
2023-02-18T15:15:51.365Z,95023.22
2023-02-18T15:17:53.034Z,95034.09
2023-02-18T15:20:00.070Z,95039.22
2023-02-18T15:22:01.787Z,95031.81
2023-02-18T15:24:19.002Z,95033.94
2023-02-18T15:26:21.308Z,95033.94
2023-02-18T15:28:26.889Z,95029.19
2023-02-18T15:30:31.229Z,95028.38
2023-02-18T15:32:33.191Z,95019.16
2023-02-18T15:34:37.852Z,95012.59
2023-02-18T15:36:39.468Z,95025.25
2023-02-18T15:38:44.573Z,95011.13
2023-02-18T15:40:53.090Z,95016.03
2023-02-18T15:42:58.125Z,95019.63
2023-02-18T15:45:20.641Z,95008.13
2023-02-18T15:47:22.832Z,95009.44
2023-02-18T15:49:24.790Z,95011.72
2023-02-18T15:51:30.280Z,94999.25
2023-02-18T15:53:37.114Z,95002.25
2023-02-18T15:55:40.414Z,94998.78
2023-02-18T15:57:42.270Z,95003.84
2023-02-18T15:59:47.466Z,94991.19
2023-02-18T16:01:51.378Z,94999.06
2023-02-18T16:03:54.559Z,94998.91
2023-02-18T16:06:19.179Z,94990.03
2023-02-18T16:08:27.722Z,94995.56
2023-02-18T16:10:33.244Z,94994.75
2023-02-18T16:12:37.410Z,94998.53
2023-02-18T16:14:49.535Z,94997.31
2023-02-18T16:17:29.344Z,94991.59
2023-02-18T16:19:32.266Z,94998.19
2023-02-18T16:21:39.915Z,94999.19
2023-02-18T16:23:44.066Z,94995.69
2023-02-18T16:25:48.760Z,95008.78
2023-02-18T16:28:03.163Z,94992.06
2023-02-18T16:30:28.151Z,95004.97
2023-02-18T16:32:30.046Z,94994.16
2023-02-18T16:34:31.937Z,95000.41
2023-02-18T16:36:33.865Z,94987.94
2023-02-18T16:38:36.058Z,94997.78
2023-02-18T16:40:43.078Z,94993.19
2023-02-18T16:42:44.671Z,94998.19
2023-02-18T16:44:48.158Z,94997.56
2023-02-18T16:46:49.826Z,94998.59
2023-02-18T16:48:55.043Z,95005.31
2023-02-18T16:50:57.087Z,95000.38
2023-02-18T16:52:59.288Z,95005.81
2023-02-18T16:55:00.914Z,95003.47
2023-02-18T16:57:02.555Z,95004.16
2023-02-18T16:59:04.746Z,94990.72
2023-02-18T17:01:06.560Z,95009.38
2023-02-18T17:03:08.419Z,94999.72
2023-02-18T17:05:26.061Z,94999.72
2023-02-18T17:07:29.892Z,94999.84
2023-02-18T17:09:31.467Z,95002.09
2023-02-18T17:11:34.430Z,94995.41
2023-02-18T17:13:36.078Z,95006.19
2023-02-18T17:15:38.099Z,95000.44
2023-02-18T17:17:39.791Z,94995.34
2023-02-18T17:19:41.410Z,94994.19
2023-02-18T17:21:43.544Z,94995.00
2023-02-18T17:23:45.647Z,94992.06
2023-02-18T17:25:49.057Z,94996.84
2023-02-18T17:27:50.791Z,94997.31
2023-02-18T17:29:52.406Z,94987.50
2023-02-18T17:31:56.931Z,94989.75
2023-02-18T17:34:01.276Z,94986.63
2023-02-18T17:36:02.961Z,94994.13
2023-02-18T17:38:16.041Z,94990.16
2023-02-18T17:40:20.130Z,94996.25
2023-02-18T17:42:21.735Z,94991.00
2023-02-18T17:44:24.717Z,94987.34
2023-02-18T17:46:26.336Z,94996.47
2023-02-18T17:48:28.484Z,94997.00
2023-02-18T17:50:31.686Z,95000.31
2023-02-18T17:52:33.334Z,94993.31
2023-02-18T17:54:34.931Z,94989.03
2023-02-18T17:56:36.776Z,94984.31
2023-02-18T17:58:38.334Z,94969.78
2023-02-18T18:00:42.463Z,94969.47
2023-02-18T18:02:44.316Z,94969.97
2023-02-18T18:04:45.909Z,94982.56
2023-02-18T18:06:47.661Z,94972.59
2023-02-18T18:08:49.260Z,94976.69
2023-02-18T18:10:55.732Z,94975.28
2023-02-18T18:12:58.455Z,94963.44
2023-02-18T18:15:01.805Z,94968.50
2023-02-18T18:17:03.394Z,94971.56
2023-02-18T18:19:05.059Z,94969.09
2023-02-18T18:21:07.295Z,94970.94
2023-02-18T18:23:11.390Z,94967.41
2023-02-18T18:25:19.461Z,94981.19
2023-02-18T18:27:21.027Z,94977.66
2023-02-18T18:29:22.599Z,94957.59
2023-02-18T18:31:24.448Z,94983.88
2023-02-18T18:33:36.545Z,94986.69
2023-02-18T18:35:38.778Z,94974.00
2023-02-18T18:37:40.350Z,94983.81
2023-02-18T18:39:41.936Z,94978.47
2023-02-18T18:41:43.578Z,94969.59
2023-02-18T18:43:45.503Z,94985.00
2023-02-18T18:45:47.747Z,94979.13
2023-02-18T18:47:50.281Z,94976.03
2023-02-18T18:49:51.951Z,94980.66
2023-02-18T18:51:55.313Z,94987.25
2023-02-18T18:53:58.486Z,94974.41
2023-02-18T18:56:05.889Z,94978.19
2023-02-18T18:58:07.504Z,94980.66
2023-02-18T19:00:10.048Z,94977.03
2023-02-18T19:02:16.107Z,94952.56
2023-02-18T19:04:18.852Z,94963.72
2023-02-18T19:06:21.219Z,94955.19
2023-02-18T19:08:23.221Z,94959.63
2023-02-18T19:10:39.486Z,94957.00
2023-02-18T19:12:41.088Z,94951.75
2023-02-18T19:14:42.662Z,94963.25
2023-02-18T19:16:44.307Z,94956.66
2023-02-18T19:18:46.403Z,94960.25
2023-02-18T19:20:48.657Z,94954.97
2023-02-18T19:22:50.804Z,94964.22
2023-02-18T19:24:52.440Z,94973.00
2023-02-18T19:26:54.042Z,94958.63
2023-02-18T19:28:55.684Z,94963.56
2023-02-18T19:30:57.442Z,94987.88
2023-02-18T19:33:00.554Z,94969.78
2023-02-18T19:35:02.112Z,94964.34
2023-02-18T19:37:03.716Z,94971.59
2023-02-18T19:39:05.308Z,94979.53
2023-02-18T19:41:12.508Z,94980.94
2023-02-18T19:43:14.591Z,94971.47
2023-02-18T19:45:17.208Z,94984.47
2023-02-18T19:47:18.779Z,94985.00
2023-02-18T19:49:20.344Z,94981.06
2023-02-18T19:51:21.996Z,94971.13
2023-02-18T19:53:23.574Z,94974.84
2023-02-18T19:55:25.510Z,94978.78
2023-02-18T19:57:27.308Z,94984.84
2023-02-18T19:59:29.844Z,94994.50
2023-02-18T20:01:31.638Z,94984.31
2023-02-18T20:03:33.495Z,94980.41
2023-02-18T20:05:38.233Z,94981.84
2023-02-18T20:07:41.688Z,94975.13
2023-02-18T20:09:43.653Z,94973.31
2023-02-18T20:11:45.351Z,94984.13
2023-02-18T20:13:48.374Z,94994.03
2023-02-18T20:15:49.979Z,94974.66
2023-02-18T20:17:51.595Z,94979.38
2023-02-18T20:19:53.292Z,94975.94
2023-02-18T20:21:56.124Z,94990.00
2023-02-18T20:23:58.327Z,94981.28
2023-02-18T20:26:04.110Z,94974.59
2023-02-18T20:28:06.029Z,94981.41
2023-02-18T20:30:08.871Z,94981.50
2023-02-18T20:32:10.557Z,94966.91
2023-02-18T20:34:12.570Z,94984.41
2023-02-18T20:36:14.468Z,94974.09
2023-02-18T20:38:18.009Z,94971.69
2023-02-18T20:40:20.384Z,94965.78
2023-02-18T20:42:22.315Z,94979.56
2023-02-18T20:44:25.816Z,94977.59
2023-02-18T20:46:27.518Z,94969.31
2023-02-18T20:48:30.166Z,94973.72
2023-02-18T20:50:31.786Z,94969.59
2023-02-18T20:52:34.741Z,94985.16
2023-02-18T20:54:36.888Z,94973.31
2023-02-18T20:56:39.241Z,94987.78
2023-02-18T20:58:41.532Z,94982.00
2023-02-18T21:00:43.230Z,94981.34
2023-02-18T21:02:44.889Z,94966.47
2023-02-18T21:04:46.601Z,94979.09
2023-02-18T21:06:50.573Z,94975.06
2023-02-18T21:08:53.634Z,94989.13
2023-02-18T21:10:56.844Z,94978.97
2023-02-18T21:12:58.562Z,94973.63
2023-02-18T21:15:00.252Z,94972.06
2023-02-18T21:17:03.671Z,94958.06
2023-02-18T21:19:07.367Z,94969.91
2023-02-18T21:21:10.289Z,94989.03
2023-02-18T21:23:12.324Z,94964.94
2023-02-18T21:25:14.039Z,94972.78
2023-02-18T21:27:15.562Z,94970.09
2023-02-18T21:29:17.433Z,94967.34
2023-02-18T21:31:43.497Z,94967.34
2023-02-18T21:33:45.254Z,94959.88
2023-02-18T21:35:49.024Z,94947.66
2023-02-18T21:37:52.162Z,94966.28
2023-02-18T21:39:53.813Z,94958.16
2023-02-18T21:41:57.177Z,94965.50
2023-02-18T21:43:58.907Z,94950.72
2023-02-18T21:46:19.644Z,94948.91
2023-02-18T21:48:39.702Z,94933.13
2023-02-18T21:50:41.247Z,94939.72
2023-02-18T21:52:43.293Z,94953.78
2023-02-18T21:54:45.050Z,94936.41
2023-02-18T21:56:46.718Z,94949.06
2023-02-18T21:58:48.346Z,94947.50
2023-02-18T22:00:57.121Z,94943.69
2023-02-18T22:02:58.734Z,94941.41
2023-02-18T22:05:02.380Z,94937.22
2023-02-18T22:07:04.244Z,94939.25
2023-02-18T22:09:06.436Z,94937.88
2023-02-18T22:11:08.314Z,94942.50
2023-02-18T22:13:10.158Z,94943.69
2023-02-18T22:15:11.872Z,94929.25
2023-02-18T22:17:14.404Z,94929.38
2023-02-18T22:19:16.035Z,94921.84
2023-02-18T22:21:19.194Z,94927.63
2023-02-18T22:23:21.813Z,94920.16
2023-02-18T22:25:23.393Z,94927.00
2023-02-18T22:27:27.105Z,94926.41
2023-02-18T22:29:29.640Z,94944.28
2023-02-18T22:31:32.657Z,94940.25
2023-02-18T22:33:34.983Z,94925.88
2023-02-18T22:35:36.686Z,94944.41
2023-02-18T22:37:38.245Z,94939.19
2023-02-18T22:39:39.919Z,94930.00
2023-02-18T22:41:42.199Z,94935.94
2023-02-18T22:43:44.397Z,94938.78
2023-02-18T22:45:46.174Z,94931.63
2023-02-18T22:47:47.798Z,94915.97
2023-02-18T22:49:49.490Z,94934.81
2023-02-18T22:51:53.206Z,94940.22
2023-02-18T22:53:55.892Z,94942.94
2023-02-18T22:56:02.142Z,94907.41
2023-02-18T22:58:03.745Z,94913.44
2023-02-18T23:00:10.686Z,94935.41
2023-02-18T23:02:12.322Z,94931.72
2023-02-18T23:04:15.753Z,94932.03
2023-02-18T23:06:18.283Z,94934.34
2023-02-18T23:08:20.110Z,94920.31
2023-02-18T23:10:21.665Z,94924.03
2023-02-18T23:12:23.364Z,94920.28
2023-02-18T23:14:28.112Z,94921.72
2023-02-18T23:16:29.720Z,94930.63
2023-02-18T23:18:33.037Z,94923.22
2023-02-18T23:20:54.381Z,94918.66
2023-02-18T23:22:55.989Z,94922.91
2023-02-18T23:24:58.065Z,94918.91
2023-02-18T23:26:59.711Z,94926.59
2023-02-18T23:29:01.332Z,94941.63
2023-02-18T23:31:03.010Z,94924.19
2023-02-18T23:33:04.697Z,94902.75
2023-02-18T23:35:06.494Z,94908.22
2023-02-18T23:37:08.191Z,94914.81
2023-02-18T23:39:11.978Z,94937.94
2023-02-18T23:41:13.679Z,94928.63
2023-02-18T23:43:15.556Z,94913.09
2023-02-18T23:45:17.133Z,94912.94
2023-02-18T23:47:18.758Z,94916.09
2023-02-18T23:49:25.183Z,94909.09
2023-02-18T23:51:26.877Z,94923.66
2023-02-18T23:53:29.828Z,94913.22
2023-02-18T23:55:31.448Z,94901.28
2023-02-18T23:57:33.166Z,94911.69
2023-02-18T23:59:35.872Z,94909.91
